Ekin-s — TCMW3 — position and weather

sailwx.info

Track history (hours):
 
Tides and Currents Weather Stations Pressure Air Temp Water Temp Dewpoint Dewpoint Depression Visibility Wind Speed Wind Dir Waves Ship Positions

Ekin-s

Last reported at 2015-Jul-21 16:33 UTC. Time now 2015-Aug-01 13:55 UTC.
Position N 42°32' E 037°18'.
Warning: this ship's position is 10 days out of date.

Length 109 m; draft 6.6 m.

Type: Ship. MMSI: 271042836.

Date/timePositionNaut miles runAvg speedWind from/ knotsBaromVisibWave heightAir tempDewpointWater temp
2015-Jul-21 16:33N 42°32' E 037°18'9911.7
2015-Jul-21 08:04N 42°58' E 035°07'1912.4
2015-Jul-21 06:33N 43°03' E 034°42'1212.3
2015-Jul-21 05:34N 43°06' E 034°26'  
2015-Jul-18 11:30N 43°09' E 034°08'1313.4
2015-Jul-18 10:33N 43°05' E 034°24'1313.1
2015-Jul-18 09:33N 43°02' E 034°42'1412.8
2015-Jul-18 08:29N 42°59' E 034°60'1212.8
2015-Jul-18 07:33N 42°56' E 035°16'1513.0
2015-Jul-18 06:25N 42°52' E 035°35'2513.2
2015-Jul-18 04:31N 42°46' E 036°08'1313.3
2015-Jul-18 03:33N 42°42' E 036°25'  
Track history (hours):
 
Tides and Currents Weather Stations Pressure Air Temp Water Temp Dewpoint Dewpoint Depression Visibility Wind Speed Wind Dir Waves Ship Positions

Ekin-s

Last reported at 2015-Jul-21 16:33 UTC. Time now 2015-Aug-01 13:56 UTC.
Position N 42°32' E 037°18'.
Warning: this ship's position is 10 days out of date.

Length 109 m; draft 6.6 m.

Type: Ship. MMSI: 271042836.

Date/timePositionNaut miles runAvg speedWind from/ knotsBaromVisibWave heightAir tempDewpointWater temp
2015-Jul-21 16:33N 42°32' E 037°18'9911.7
2015-Jul-21 08:04N 42°58' E 035°07'1912.4
2015-Jul-21 06:33N 43°03' E 034°42'1212.3
2015-Jul-21 05:34N 43°06' E 034°26'  
2015-Jul-18 11:30N 43°09' E 034°08'1313.4
2015-Jul-18 10:33N 43°05' E 034°24'1313.1
2015-Jul-18 09:33N 43°02' E 034°42'1412.8
2015-Jul-18 08:29N 42°59' E 034°60'1212.8
2015-Jul-18 07:33N 42°56' E 035°16'1513.0
2015-Jul-18 06:25N 42°52' E 035°35'2513.2
2015-Jul-18 04:31N 42°46' E 036°08'1313.3
2015-Jul-18 03:33N 42°42' E 036°25'  

Dump ship's entire track history